TAF KFMN
KFMN 090539Z 0906/1006 VRB05KT P6SM FEW050 BKN070 FM091100 09006KT P6SM BKN035 FM091800 16008KT P6SM VCSH SCT035 BKN045 FM100200 21010G16KT P6SM VCSH BKN035 FM100500 22012G20KT 3SM -RASN BKN025=
METAR KFMN
WC KFMN
WS KFMN
WV KFMN